Time;durP1;ratioP1;P1;durP2;ratioP2;P2;SDS_P1;SDS_P2;PMS_P1;PMS_P2;Temp;Humidity;BMP_temperature;BMP_pressure;BME280_temperature;BME280_humidity;BME280_pressure;Samples;Min_cycle;Max_cycle;Signal;HPM_P1;HPM_P2
2023/11/26 00:00:51;;;;;;;7.70;2.90;;;3.10;99.90;;;;;;5034427;28;20033;-73
2023/11/26 00:03:17;;;;;;;5.32;2.80;;;3.10;99.90;;;;;;5043068;28;20051;-72
2023/11/26 00:05:43;;;;;;;5.50;2.92;;;3.10;99.90;;;;;;5049596;28;20512;-72
2023/11/26 00:08:08;;;;;;;7.63;3.15;;;3.10;99.90;;;;;;5050377;28;20102;-73
2023/11/26 00:10:34;;;;;;;5.10;2.78;;;3.00;99.90;;;;;;5050415;28;20071;-73
2023/11/26 00:12:59;;;;;;;6.97;2.95;;;3.00;99.90;;;;;;5052977;28;20040;-73
2023/11/26 00:15:25;;;;;;;7.60;3.00;;;3.00;99.90;;;;;;5049802;28;20060;-73
2023/11/26 00:17:50;;;;;;;6.57;2.85;;;3.00;99.90;;;;;;5044981;28;20512;-73
2023/11/26 00:20:16;;;;;;;7.85;3.33;;;3.00;99.90;;;;;;5046620;28;20456;-73
2023/11/26 00:22:42;;;;;;;9.02;3.20;;;3.00;99.90;;;;;;5056106;28;20093;-72
2023/11/26 00:25:08;;;;;;;7.03;2.88;;;3.00;99.90;;;;;;5034505;28;20473;-73
2023/11/26 00:27:34;;;;;;;6.35;3.22;;;3.00;99.90;;;;;;5051283;28;20068;-73
2023/11/26 00:30:00;;;;;;;6.80;3.30;;;3.00;99.90;;;;;;5056217;28;20405;-73
2023/11/26 00:32:25;;;;;;;4.53;2.78;;;3.00;99.90;;;;;;5045292;28;20061;-72
2023/11/26 00:34:55;;;;;;;7.75;3.22;;;3.00;99.90;;;;;;5035888;28;20521;-73
2023/11/26 00:37:20;;;;;;;8.00;3.13;;;3.00;99.90;;;;;;5021915;28;20033;-73
2023/11/26 00:39:47;;;;;;;8.65;3.42;;;2.90;99.90;;;;;;5058663;28;20677;-73
2023/11/26 00:42:12;;;;;;;6.15;3.13;;;2.90;99.90;;;;;;5059875;28;20052;-72
2023/11/26 00:44:38;;;;;;;10.57;3.63;;;2.90;99.90;;;;;;5046829;28;20497;-73
2023/11/26 00:47:04;;;;;;;8.98;3.22;;;3.00;99.90;;;;;;5034425;28;20040;-73
2023/11/26 00:49:29;;;;;;;6.65;3.13;;;3.00;99.90;;;;;;5044777;28;20033;-73
2023/11/26 00:51:55;;;;;;;9.77;3.20;;;3.00;99.90;;;;;;5036112;28;20042;-73
2023/11/26 00:54:20;;;;;;;9.82;3.20;;;3.00;99.90;;;;;;5031585;28;20041;-73
2023/11/26 00:56:46;;;;;;;9.95;3.63;;;3.00;99.90;;;;;;5053948;28;20064;-74
2023/11/26 00:59:12;;;;;;;8.00;3.22;;;3.00;99.90;;;;;;5037468;28;20052;-74
2023/11/26 01:01:38;;;;;;;8.38;3.45;;;3.00;99.90;;;;;;5046431;28;20045;-73
2023/11/26 01:04:04;;;;;;;8.13;3.22;;;3.10;99.90;;;;;;5049209;28;20067;-73
2023/11/26 01:06:29;;;;;;;9.30;3.65;;;3.10;99.90;;;;;;5053127;28;20436;-73
2023/11/26 01:08:55;;;;;;;8.00;3.65;;;3.20;99.90;;;;;;5053839;28;20465;-73
2023/11/26 01:11:21;;;;;;;12.85;3.28;;;3.10;99.90;;;;;;5054383;28;20119;-73
2023/11/26 01:13:46;;;;;;;9.23;3.40;;;3.10;99.90;;;;;;5037792;28;20519;-74
2023/11/26 01:16:12;;;;;;;8.70;3.42;;;3.20;99.90;;;;;;5039869;28;20039;-73
2023/11/26 01:18:39;;;;;;;9.60;4.10;;;3.20;99.90;;;;;;5050126;28;20493;-74
2023/11/26 01:21:06;;;;;;;12.38;4.05;;;3.20;99.90;;;;;;5019646;28;20029;-73
2023/11/26 01:23:32;;;;;;;7.57;3.35;;;3.20;99.90;;;;;;5040273;28;20069;-73
2023/11/26 01:25:57;;;;;;;10.25;3.65;;;3.30;99.90;;;;;;5046086;28;20460;-73
2023/11/26 01:28:23;;;;;;;10.50;3.88;;;3.30;99.90;;;;;;5049198;28;20048;-73
2023/11/26 01:30:48;;;;;;;10.15;3.90;;;3.30;99.90;;;;;;5042226;28;20045;-72
2023/11/26 01:33:14;;;;;;;8.38;3.63;;;3.30;99.90;;;;;;5048256;28;20493;-72
2023/11/26 01:35:40;;;;;;;10.88;3.78;;;3.30;99.90;;;;;;5054152;28;20093;-73
2023/11/26 01:38:06;;;;;;;9.30;3.83;;;3.30;99.90;;;;;;5056322;28;20102;-72
2023/11/26 01:40:38;;;;;;;10.95;3.72;;;3.40;99.90;;;;;;5050097;28;20052;-73
2023/11/26 01:43:04;;;;;;;7.57;4.32;;;3.40;99.90;;;;;;5049370;28;20053;-72
2023/11/26 01:45:30;;;;;;;6.53;3.72;;;3.30;99.90;;;;;;5053002;28;20125;-73
2023/11/26 01:47:57;;;;;;;9.25;4.05;;;3.40;99.90;;;;;;5028169;28;20047;-74
2023/11/26 01:50:24;;;;;;;10.93;4.28;;;3.40;99.90;;;;;;5055469;28;20033;-73
2023/11/26 01:52:50;;;;;;;7.40;3.75;;;3.40;99.90;;;;;;5050304;28;20102;-73
2023/11/26 01:55:20;;;;;;;7.63;3.78;;;3.40;99.90;;;;;;5047848;28;20111;-73
2023/11/26 01:57:47;;;;;;;9.93;3.78;;;3.40;99.90;;;;;;5033876;28;20099;-72
2023/11/26 02:00:16;;;;;;;7.45;4.05;;;3.30;99.90;;;;;;5048861;28;20493;-72
2023/11/26 02:02:41;;;;;;;13.15;4.05;;;3.30;99.90;;;;;;5048960;28;20083;-72
2023/11/26 02:05:15;;;;;;;14.60;4.28;;;3.30;99.90;;;;;;5055199;28;20044;-72
2023/11/26 02:07:42;;;;;;;7.03;3.33;;;3.30;99.90;;;;;;5038697;28;20068;-72
2023/11/26 02:10:08;;;;;;;9.05;3.90;;;3.30;99.90;;;;;;5050674;28;20506;-73
2023/11/26 02:12:35;;;;;;;8.75;4.10;;;3.20;99.90;;;;;;5044245;28;20079;-73
2023/11/26 02:15:01;;;;;;;11.00;4.50;;;3.30;99.90;;;;;;5051697;28;20136;-73
2023/11/26 02:17:27;;;;;;;9.63;4.13;;;3.20;99.90;;;;;;5052661;28;20498;-72
2023/11/26 02:19:56;;;;;;;10.52;4.10;;;3.20;99.90;;;;;;5058310;28;20384;-73
2023/11/26 02:22:22;;;;;;;8.50;3.90;;;3.20;99.90;;;;;;5055915;28;20048;-72
2023/11/26 02:24:48;;;;;;;15.43;4.45;;;3.20;99.90;;;;;;5054377;28;20505;-72
2023/11/26 02:27:14;;;;;;;11.10;4.63;;;3.20;99.90;;;;;;5054908;28;20033;-72
2023/11/26 02:29:42;;;;;;;11.25;4.28;;;3.20;99.90;;;;;;5050736;28;20033;-73
2023/11/26 02:32:08;;;;;;;9.23;4.32;;;3.20;99.90;;;;;;5037090;28;20040;-74
2023/11/26 02:34:36;;;;;;;9.88;4.32;;;3.20;99.90;;;;;;5036644;28;20052;-74
2023/11/26 02:37:02;;;;;;;10.25;4.38;;;3.30;99.90;;;;;;5045504;28;20041;-74
2023/11/26 02:39:28;;;;;;;9.32;4.38;;;3.30;99.90;;;;;;5053293;28;20059;-74
2023/11/26 02:42:00;;;;;;;9.40;4.32;;;3.30;99.90;;;;;;5053040;28;20047;-74
2023/11/26 02:44:26;;;;;;;6.95;4.15;;;3.30;99.90;;;;;;5038228;28;20185;-72
2023/11/26 02:46:52;;;;;;;9.30;4.03;;;3.30;99.90;;;;;;5036064;28;20037;-72
2023/11/26 02:49:18;;;;;;;8.98;4.53;;;3.30;99.90;;;;;;5040593;28;20059;-72
2023/11/26 02:51:44;;;;;;;9.25;4.47;;;3.30;99.90;;;;;;5047712;28;20041;-74
2023/11/26 02:54:09;;;;;;;10.90;5.40;;;3.40;99.90;;;;;;5043234;28;20037;-74
2023/11/26 02:56:35;;;;;;;11.60;4.68;;;3.40;99.90;;;;;;5051032;28;20048;-73
2023/11/26 02:59:00;;;;;;;15.70;4.45;;;3.40;99.90;;;;;;5041573;28;20405;-74
2023/11/26 03:01:29;;;;;;;10.60;4.32;;;3.40;99.90;;;;;;5042709;28;20045;-73
2023/11/26 03:03:55;;;;;;;8.68;4.00;;;3.40;99.90;;;;;;5037500;28;20083;-73
2023/11/26 03:06:26;;;;;;;10.98;4.70;;;3.40;99.90;;;;;;5035352;28;20131;-73
2023/11/26 03:08:59;;;;;;;11.18;3.90;;;3.40;99.90;;;;;;5049289;28;20083;-73
2023/11/26 03:14:13;;;;;;;8.43;4.07;;;3.40;99.90;;;;;;5050158;28;20084;-73
2023/11/26 03:16:39;;;;;;;11.27;4.03;;;3.40;99.90;;;;;;5014530;28;20034;-73
2023/11/26 03:19:04;;;;;;;10.32;4.30;;;3.40;99.90;;;;;;5040890;28;20076;-73
2023/11/26 03:21:30;;;;;;;12.20;4.38;;;3.40;99.90;;;;;;5046365;28;20072;-73
2023/11/26 03:23:55;;;;;;;9.43;4.10;;;3.50;99.90;;;;;;5047212;28;20033;-73
2023/11/26 03:26:25;;;;;;;12.48;4.53;;;3.40;99.90;;;;;;5033628;28;20413;-73
2023/11/26 03:28:52;;;;;;;8.60;3.95;;;3.50;99.90;;;;;;5038513;28;20033;-73
2023/11/26 03:31:22;;;;;;;9.48;3.70;;;3.40;99.90;;;;;;5039656;28;20034;-74
2023/11/26 03:33:47;;;;;;;10.48;4.38;;;4.70;99.90;;;;;;5047728;28;20064;-72
2023/11/26 03:36:13;;;;;;;9.07;4.60;;;3.40;99.90;;;;;;5041444;28;20072;-73
2023/11/26 03:38:39;;;;;;;8.82;4.15;;;3.40;99.90;;;;;;5044604;28;20037;-73
2023/11/26 03:41:05;;;;;;;9.25;4.05;;;3.40;99.90;;;;;;5051782;28;20036;-73
2023/11/26 03:43:30;;;;;;;11.00;4.20;;;3.40;99.90;;;;;;5049076;28;20048;-73
2023/11/26 03:45:57;;;;;;;8.85;3.85;;;3.40;99.90;;;;;;5040774;28;20038;-73
2023/11/26 03:48:22;;;;;;;6.85;3.50;;;4.30;99.90;;;;;;5046865;28;20039;-73
2023/11/26 03:50:48;;;;;;;7.63;3.63;;;3.40;99.90;;;;;;5016902;28;20045;-73
2023/11/26 03:53:14;;;;;;;9.57;3.53;;;3.40;99.90;;;;;;5044813;28;20156;-73
2023/11/26 03:55:40;;;;;;;7.50;3.42;;;3.40;99.90;;;;;;5044870;28;20095;-73
2023/11/26 03:58:07;;;;;;;10.07;3.70;;;3.40;99.90;;;;;;5044113;28;20040;-73
2023/11/26 04:00:33;;;;;;;6.80;3.33;;;3.40;99.90;;;;;;5037977;28;20415;-73
2023/11/26 04:02:58;;;;;;;9.35;3.30;;;3.40;99.90;;;;;;5050960;28;20045;-73
2023/11/26 04:05:25;;;;;;;7.57;3.40;;;3.40;99.90;;;;;;5040938;28;20040;-73
2023/11/26 04:07:51;;;;;;;9.88;3.20;;;3.40;99.90;;;;;;5040994;28;20071;-74
2023/11/26 04:10:16;;;;;;;11.38;3.50;;;3.40;99.90;;;;;;5043814;28;20033;-73
2023/11/26 04:12:46;;;;;;;7.68;3.50;;;3.40;99.90;;;;;;5046311;28;20037;-74
2023/11/26 04:15:12;;;;;;;8.38;3.20;;;3.40;99.90;;;;;;5048103;28;20076;-74
2023/11/26 04:17:38;;;;;;;10.43;3.47;;;3.40;99.90;;;;;;5048177;28;20219;-73
2023/11/26 04:20:08;;;;;;;6.15;3.00;;;3.40;99.90;;;;;;5045935;28;20061;-72
2023/11/26 04:22:37;;;;;;;11.15;2.70;;;3.40;99.90;;;;;;5042028;28;20040;-74
2023/11/26 04:25:03;;;;;;;7.47;2.72;;;3.40;99.90;;;;;;5038432;28;20095;-73
2023/11/26 04:27:29;;;;;;;6.13;2.63;;;3.40;99.90;;;;;;5035378;28;20496;-73
2023/11/26 04:29:54;;;;;;;6.03;2.78;;;3.40;99.90;;;;;;5039355;28;20057;-73
2023/11/26 04:32:20;;;;;;;10.82;3.08;;;3.40;99.90;;;;;;5049857;28;20123;-73
2023/11/26 04:34:45;;;;;;;7.72;2.65;;;3.40;99.90;;;;;;5034732;28;20233;-73
2023/11/26 04:37:14;;;;;;;6.22;2.28;;;3.40;99.90;;;;;;5052508;28;20044;-71
2023/11/26 04:39:39;;;;;;;9.77;2.50;;;3.40;99.90;;;;;;5052024;28;20048;-73
2023/11/26 04:42:06;;;;;;;9.18;2.35;;;3.40;99.90;;;;;;5056518;28;20056;-73
2023/11/26 04:44:32;;;;;;;7.43;2.65;;;3.50;99.90;;;;;;5055352;28;20056;-73
2023/11/26 04:47:01;;;;;;;9.63;2.40;;;3.50;99.90;;;;;;5053864;28;20045;-73
2023/11/26 04:49:27;;;;;;;5.88;1.90;;;3.60;99.90;;;;;;5045974;28;20046;-73
2023/11/26 04:51:52;;;;;;;6.28;2.00;;;3.60;99.90;;;;;;5059685;28;20108;-73
2023/11/26 04:54:21;;;;;;;13.27;2.33;;;3.70;99.90;;;;;;5078359;22;20087;-75
2023/11/26 04:56:46;;;;;;;12.95;2.15;;;3.70;99.90;;;;;;5053985;28;20077;-76
2023/11/26 04:59:12;;;;;;;5.18;1.90;;;3.70;99.90;;;;;;5050552;28;20098;-75
2023/11/26 05:01:43;;;;;;;7.95;1.65;;;3.80;99.90;;;;;;5053709;28;20120;-75
2023/11/26 05:04:13;;;;;;;7.00;2.17;;;3.80;99.90;;;;;;5043224;28;20429;-75
2023/11/26 05:06:39;;;;;;;7.50;2.22;;;3.80;99.90;;;;;;5035611;28;20056;-76
2023/11/26 05:09:11;;;;;;;5.43;2.00;;;3.80;99.90;;;;;;5047406;28;20033;-75
2023/11/26 05:11:37;;;;;;;6.03;1.90;;;3.80;99.90;;;;;;5036250;28;20045;-75
2023/11/26 05:14:03;;;;;;;6.50;2.00;;;3.70;99.90;;;;;;5036298;28;20045;-76
2023/11/26 05:16:28;;;;;;;9.07;1.83;;;3.70;99.90;;;;;;5040183;28;20055;-76
2023/11/26 05:18:54;;;;;;;9.90;2.03;;;3.70;99.90;;;;;;5036643;28;20045;-75
2023/11/26 05:21:19;;;;;;;8.95;2.15;;;3.80;99.90;;;;;;5035962;28;20036;-75
2023/11/26 05:23:45;;;;;;;10.32;1.70;;;3.70;99.90;;;;;;5036045;28;20067;-75
2023/11/26 05:26:13;;;;;;;6.38;1.50;;;3.70;99.90;;;;;;5036171;28;20501;-75
2023/11/26 05:28:38;;;;;;;6.43;1.60;;;3.70;99.90;;;;;;5036639;28;20539;-74
2023/11/26 05:31:04;;;;;;;5.43;1.58;;;3.70;99.90;;;;;;5028749;28;20076;-75
2023/11/26 05:33:30;;;;;;;6.22;1.40;;;3.70;99.90;;;;;;5035696;28;20025;-75
2023/11/26 05:35:55;;;;;;;4.22;1.48;;;3.70;99.90;;;;;;5036027;28;20143;-75
2023/11/26 05:38:21;;;;;;;5.88;1.90;;;3.70;99.90;;;;;;5034884;28;20044;-76
2023/11/26 05:40:47;;;;;;;8.43;1.65;;;3.70;99.90;;;;;;5036091;28;20056;-75
2023/11/26 05:43:13;;;;;;;9.57;2.00;;;3.70;99.90;;;;;;5035626;28;20077;-75
2023/11/26 05:45:39;;;;;;;8.95;1.90;;;3.70;99.90;;;;;;5035712;28;20125;-73
2023/11/26 05:48:06;;;;;;;9.18;2.05;;;3.70;99.90;;;;;;5035211;28;20044;-75
2023/11/26 05:50:32;;;;;;;5.65;1.70;;;3.80;99.90;;;;;;5030736;28;20056;-75
2023/11/26 05:52:57;;;;;;;7.63;1.70;;;3.80;99.90;;;;;;5017748;28;20481;-75
2023/11/26 05:55:23;;;;;;;10.30;1.98;;;3.80;99.90;;;;;;5035644;28;20446;-75
2023/11/26 05:57:49;;;;;;;9.75;1.80;;;3.80;99.90;;;;;;5035825;28;20130;-75
2023/11/26 06:00:15;;;;;;;8.95;1.73;;;3.80;99.90;;;;;;5053310;28;20147;-74
2023/11/26 06:02:41;;;;;;;6.20;1.65;;;3.80;99.90;;;;;;5034048;28;20051;-74
2023/11/26 06:05:08;;;;;;;8.73;1.95;;;3.80;99.90;;;;;;5035198;28;20044;-75
2023/11/26 06:07:34;;;;;;;8.55;1.70;;;3.80;99.90;;;;;;5052945;28;20124;-75
2023/11/26 06:09:59;;;;;;;8.85;1.88;;;3.90;99.90;;;;;;5035410;28;20504;-77
2023/11/26 06:12:25;;;;;;;10.10;1.67;;;3.80;99.90;;;;;;5034024;28;20040;-74
2023/11/26 06:14:51;;;;;;;9.82;1.85;;;3.90;99.90;;;;;;5035123;28;20124;-74
2023/11/26 06:17:16;;;;;;;5.90;1.65;;;3.80;99.90;;;;;;5035150;28;20532;-74
2023/11/26 06:19:42;;;;;;;5.05;1.40;;;3.90;99.90;;;;;;5052997;28;20044;-74
2023/11/26 06:22:08;;;;;;;6.50;1.60;;;3.90;99.90;;;;;;5032657;28;20072;-75
2023/11/26 06:24:33;;;;;;;8.50;2.10;;;3.90;99.90;;;;;;5034657;28;20048;-74
2023/11/26 06:26:59;;;;;;;5.93;1.77;;;3.90;99.90;;;;;;5017446;28;20053;-74
2023/11/26 06:29:25;;;;;;;6.70;1.70;;;3.90;99.90;;;;;;5034741;28;20084;-74
2023/11/26 06:31:51;;;;;;;6.75;1.60;;;3.90;99.90;;;;;;5016381;28;20068;-75
2023/11/26 06:34:18;;;;;;;11.48;1.73;;;3.90;99.90;;;;;;5049073;28;20036;-75
2023/11/26 06:36:44;;;;;;;9.23;1.70;;;3.90;99.90;;;;;;5030939;28;20429;-74
2023/11/26 06:39:10;;;;;;;5.32;1.65;;;3.90;99.90;;;;;;5047933;28;20033;-75
2023/11/26 06:41:38;;;;;;;8.60;1.80;;;3.90;99.90;;;;;;5052187;28;20106;-75
2023/11/26 06:44:04;;;;;;;6.60;1.70;;;3.90;99.90;;;;;;5033281;28;20502;-74
2023/11/26 06:46:30;;;;;;;6.85;1.73;;;3.90;99.90;;;;;;5034441;28;20075;-75
2023/11/26 06:48:56;;;;;;;3.70;1.70;;;4.00;99.90;;;;;;5052272;28;20496;-75
2023/11/26 06:51:22;;;;;;;7.78;1.65;;;4.00;99.90;;;;;;5034076;28;20096;-75
2023/11/26 06:53:49;;;;;;;9.82;1.80;;;4.00;99.90;;;;;;5033565;28;20029;-75
2023/11/26 06:56:15;;;;;;;6.80;1.55;;;4.00;99.90;;;;;;5034031;28;20103;-75
2023/11/26 06:58:43;;;;;;;6.88;1.70;;;4.00;99.90;;;;;;5034029;28;20511;-75
2023/11/26 07:01:10;;;;;;;9.35;1.60;;;4.00;99.90;;;;;;5034836;28;20044;-76
2023/11/26 07:03:37;;;;;;;10.02;1.50;;;4.00;99.90;;;;;;5033749;28;20057;-76
2023/11/26 07:06:08;;;;;;;5.93;1.60;;;4.10;99.90;;;;;;5033079;28;20131;-76
2023/11/26 07:08:36;;;;;;;7.57;1.35;;;4.10;99.90;;;;;;5034261;28;20052;-76
2023/11/26 07:11:02;;;;;;;4.40;1.48;;;4.10;99.90;;;;;;5051788;28;20044;-76
2023/11/26 07:13:28;;;;;;;12.40;1.73;;;4.10;99.90;;;;;;5033323;28;20040;-76
2023/11/26 07:15:54;;;;;;;6.88;1.30;;;4.10;99.90;;;;;;5049634;28;20041;-76
2023/11/26 07:18:20;;;;;;;5.72;1.35;;;4.10;99.90;;;;;;5034129;28;20076;-76
2023/11/26 07:20:46;;;;;;;6.75;1.38;;;4.10;99.90;;;;;;5033742;28;20041;-77
2023/11/26 07:23:15;;;;;;;10.15;1.30;;;4.20;99.90;;;;;;5033803;28;20131;-76
2023/11/26 07:25:41;;;;;;;6.85;1.20;;;4.10;99.90;;;;;;5035044;28;20045;-76
2023/11/26 07:28:08;;;;;;;7.20;1.38;;;4.20;99.90;;;;;;5026013;28;20095;-76
2023/11/26 07:30:35;;;;;;;10.82;1.52;;;4.20;99.90;;;;;;5048072;28;20394;-76
2023/11/26 07:33:00;;;;;;;7.47;1.52;;;4.20;99.90;;;;;;5033878;28;20413;-76
2023/11/26 07:35:26;;;;;;;6.63;1.45;;;4.20;99.90;;;;;;5033332;28;20053;-76
2023/11/26 07:37:52;;;;;;;9.82;1.60;;;4.20;99.90;;;;;;5034095;28;20039;-78
2023/11/26 07:40:18;;;;;;;6.75;1.40;;;4.20;99.90;;;;;;5033620;28;20493;-75
2023/11/26 07:42:43;;;;;;;4.55;1.20;;;4.20;99.90;;;;;;5032324;28;20459;-76
2023/11/26 07:45:09;;;;;;;9.57;1.63;;;4.30;99.90;;;;;;5031621;28;20049;-78
2023/11/26 07:47:35;;;;;;;5.97;1.30;;;4.30;99.90;;;;;;5030383;28;20732;-77
2023/11/26 07:50:00;;;;;;;4.15;1.20;;;4.20;99.90;;;;;;5049677;28;20068;-77
2023/11/26 07:52:26;;;;;;;10.95;1.85;;;4.30;99.90;;;;;;5051405;28;20048;-76
2023/11/26 07:54:53;;;;;;;6.97;1.40;;;4.30;99.90;;;;;;5050526;28;20490;-78
2023/11/26 07:57:20;;;;;;;8.95;1.50;;;4.20;99.90;;;;;;5051340;28;20071;-77
2023/11/26 07:59:47;;;;;;;4.13;1.30;;;4.30;99.90;;;;;;5033200;28;20128;-77
2023/11/26 08:02:13;;;;;;;1.75;1.10;;;4.30;99.90;;;;;;5032913;28;20080;-77
2023/11/26 08:04:38;;;;;;;8.38;1.92;;;4.30;99.90;;;;;;5050614;28;20537;-77
2023/11/26 08:07:05;;;;;;;8.95;1.48;;;4.30;99.90;;;;;;5032544;28;20127;-76
2023/11/26 08:09:32;;;;;;;12.85;1.50;;;4.30;99.90;;;;;;5033526;28;20077;-77
2023/11/26 08:12:00;;;;;;;8.27;1.60;;;4.30;99.90;;;;;;5046974;28;20049;-77
2023/11/26 08:14:26;;;;;;;7.80;1.30;;;4.30;99.90;;;;;;5051001;28;20037;-76
2023/11/26 08:16:54;;;;;;;7.43;1.27;;;4.40;99.90;;;;;;5027427;28;20032;-76
2023/11/26 08:19:23;;;;;;;10.40;1.55;;;4.40;99.90;;;;;;5048970;28;20048;-77
2023/11/26 08:21:49;;;;;;;9.27;1.75;;;4.40;99.90;;;;;;5043413;28;20037;-77
2023/11/26 08:24:18;;;;;;;12.75;1.70;;;4.40;99.90;;;;;;5031268;28;20087;-76
2023/11/26 08:26:47;;;;;;;8.77;1.80;;;4.50;99.90;;;;;;5023971;28;20068;-77
2023/11/26 08:29:16;;;;;;;8.63;1.70;;;4.50;99.90;;;;;;5035424;28;20481;-77
2023/11/26 08:31:42;;;;;;;7.97;1.63;;;4.50;99.90;;;;;;5029678;28;20412;-77
2023/11/26 08:34:08;;;;;;;9.15;1.65;;;4.60;99.90;;;;;;5032523;28;20040;-76
2023/11/26 08:36:40;;;;;;;8.52;1.77;;;4.70;99.90;;;;;;5028903;28;20039;-76
2023/11/26 08:39:06;;;;;;;11.20;1.80;;;4.70;99.90;;;;;;5049446;28;20037;-77
2023/11/26 08:41:31;;;;;;;8.95;1.55;;;4.70;99.90;;;;;;5050635;28;20037;-77
2023/11/26 08:44:00;;;;;;;4.75;1.15;;;4.80;99.90;;;;;;5045789;28;20049;-77
2023/11/26 08:46:27;;;;;;;10.88;1.75;;;4.90;99.90;;;;;;5032622;28;20045;-78
2023/11/26 08:48:53;;;;;;;8.18;2.00;;;4.90;99.90;;;;;;5032809;28;20052;-77
2023/11/26 08:51:19;;;;;;;8.13;1.50;;;4.90;99.90;;;;;;5031735;28;20079;-76
2023/11/26 08:53:45;;;;;;;11.50;3.63;;;5.00;99.90;;;;;;5029915;28;20036;-76
2023/11/26 08:56:12;;;;;;;9.10;3.60;;;5.00;99.90;;;;;;5024663;28;20044;-76
2023/11/26 08:58:37;;;;;;;13.63;3.65;;;5.10;99.90;;;;;;5029671;28;20135;-75
2023/11/26 09:01:05;;;;;;;12.95;2.58;;;5.10;99.90;;;;;;5050602;28;20131;-76
2023/11/26 09:03:32;;;;;;;10.07;1.63;;;5.20;99.90;;;;;;5028798;28;20036;-77
2023/11/26 09:05:57;;;;;;;8.70;2.00;;;5.20;99.90;;;;;;5026419;28;20064;-77
2023/11/26 09:08:24;;;;;;;7.07;1.45;;;5.30;99.90;;;;;;5049379;28;20795;-77
2023/11/26 09:10:51;;;;;;;7.10;1.60;;;5.30;99.90;;;;;;5030715;28;20045;-77
2023/11/26 09:13:16;;;;;;;12.65;1.83;;;5.30;99.90;;;;;;5031975;28;20044;-77
2023/11/26 09:15:42;;;;;;;11.30;2.08;;;5.30;99.90;;;;;;5032224;28;20043;-77
2023/11/26 09:18:09;;;;;;;5.75;1.77;;;5.40;99.90;;;;;;5050407;28;20067;-77
2023/11/26 09:20:34;;;;;;;12.05;1.60;;;5.30;99.90;;;;;;5033141;28;20033;-77
2023/11/26 09:23:00;;;;;;;12.30;2.25;;;5.40;99.90;;;;;;5031937;28;20099;-77
2023/11/26 09:25:27;;;;;;;10.80;1.70;;;5.40;99.90;;;;;;5032356;28;20045;-77
2023/11/26 09:27:53;;;;;;;10.45;4.30;;;5.50;99.90;;;;;;5031528;28;20539;-77
2023/11/26 09:30:18;;;;;;;16.38;7.38;;;5.50;99.90;;;;;;5054814;28;20029;-77
2023/11/26 09:32:44;;;;;;;13.02;6.28;;;5.60;99.90;;;;;;5035638;28;20040;-77
2023/11/26 09:35:10;;;;;;;12.95;4.38;;;5.60;99.90;;;;;;5034210;28;20049;-76
2023/11/26 09:37:35;;;;;;;7.93;2.42;;;5.70;99.90;;;;;;5051788;28;20041;-76
2023/11/26 09:40:02;;;;;;;10.40;2.65;;;5.70;99.90;;;;;;5036890;28;20195;-77
2023/11/26 09:42:27;;;;;;;7.97;2.38;;;5.80;99.90;;;;;;5058548;28;20040;-76
2023/11/26 09:44:53;;;;;;;9.20;2.15;;;5.80;99.90;;;;;;5032698;28;20044;-76
2023/11/26 09:47:19;;;;;;;8.15;1.80;;;5.80;99.90;;;;;;5056526;28;20049;-75
2023/11/26 09:49:45;;;;;;;11.07;2.72;;;5.90;99.90;;;;;;5035918;28;20041;-77
2023/11/26 09:52:11;;;;;;;10.95;2.60;;;5.90;99.90;;;;;;5055772;28;20272;-77
2023/11/26 09:54:36;;;;;;;14.63;5.85;;;6.00;99.90;;;;;;5045659;28;20060;-77
2023/11/26 09:57:03;;;;;;;28.42;18.85;;;6.10;99.90;;;;;;5054909;28;20041;-76
2023/11/26 09:59:35;;;;;;;16.08;6.90;;;6.10;99.90;;;;;;5036133;28;20052;-77
2023/11/26 10:02:03;;;;;;;15.77;4.15;;;6.20;99.90;;;;;;5048579;28;20129;-78
2023/11/26 10:04:47;;;;;;;9.68;2.70;;;6.50;99.90;;;;;;5040017;28;20547;-78
2023/11/26 10:07:14;;;;;;;13.50;2.08;;;6.30;99.90;;;;;;5055194;28;20063;-78
2023/11/26 10:09:40;;;;;;;7.15;1.95;;;6.40;99.90;;;;;;5041744;28;20044;-75
2023/11/26 10:12:06;;;;;;;10.90;2.00;;;6.40;99.90;;;;;;5036857;28;20402;-77
2023/11/26 10:14:31;;;;;;;12.13;1.92;;;6.50;99.90;;;;;;5021992;28;20048;-77
2023/11/26 10:17:09;;;;;;;9.00;2.15;;;6.50;99.90;;;;;;5042371;28;20032;-76
2023/11/26 10:19:35;;;;;;;8.75;2.17;;;6.50;99.90;;;;;;5037506;28;20086;-76
2023/11/26 10:22:00;;;;;;;11.32;2.40;;;6.50;99.90;;;;;;5056067;28;20041;-76
2023/11/26 10:24:30;;;;;;;10.60;2.30;;;6.60;99.90;;;;;;5038660;28;20052;-75
2023/11/26 10:26:57;;;;;;;12.93;2.30;;;6.60;99.90;;;;;;5036039;28;20511;-78
2023/11/26 10:29:31;;;;;;;6.60;1.98;;;6.60;99.90;;;;;;5040020;28;20070;-77
2023/11/26 10:32:06;;;;;;;9.07;2.10;;;6.60;99.90;;;;;;5031643;28;20471;-76
2023/11/26 10:34:37;;;;;;;12.45;4.00;;;6.70;99.90;;;;;;5035743;28;20390;-77
2023/11/26 10:37:19;;;;;;;12.00;4.35;;;6.70;99.90;;;;;;5054018;28;20061;-77
2023/11/26 10:39:45;;;;;;;9.90;3.08;;;6.70;99.90;;;;;;5053797;28;20045;-77
2023/11/26 10:42:10;;;;;;;12.93;3.10;;;6.80;99.90;;;;;;5027476;28;20090;-77
2023/11/26 10:44:38;;;;;;;8.75;2.53;;;6.80;99.90;;;;;;5056864;28;20130;-78
2023/11/26 10:47:07;;;;;;;13.15;2.25;;;6.80;99.90;;;;;;5035343;28;20037;-78
2023/11/26 10:49:49;;;;;;;9.93;3.35;;;6.80;99.90;;;;;;5042590;28;20055;-78
2023/11/26 10:52:24;;;;;;;10.25;2.40;;;6.80;99.90;;;;;;5048287;28;20076;-78
2023/11/26 10:55:00;;;;;;;8.95;3.17;;;6.90;99.90;;;;;;5044049;22;20868;-72
2023/11/26 10:57:38;;;;;;;11.20;2.83;;;7.00;99.90;;;;;;5024869;28;20057;-72
2023/11/26 11:00:07;;;;;;;11.20;4.05;;;7.00;99.90;;;;;;5026672;28;20056;-72
2023/11/26 11:02:36;;;;;;;23.73;15.02;;;7.10;99.90;;;;;;4998287;28;20048;-73
2023/11/26 11:05:06;;;;;;;53.05;37.00;;;7.10;99.90;;;;;;5011662;28;20037;-73
2023/11/26 11:07:34;;;;;;;58.40;37.10;;;7.10;99.90;;;;;;5007382;28;20147;-73
2023/11/26 11:10:09;;;;;;;38.88;21.73;;;7.10;99.90;;;;;;5020923;28;20045;-73
2023/11/26 11:13:02;;;;;;;27.38;14.30;;;7.10;99.90;;;;;;5023042;28;20045;-73
2023/11/26 11:15:28;;;;;;;15.15;7.00;;;7.10;99.90;;;;;;5032105;28;20485;-73
2023/11/26 11:17:53;;;;;;;11.90;7.18;;;7.10;99.90;;;;;;5008346;28;20048;-73
2023/11/26 11:20:19;;;;;;;9.98;4.65;;;7.10;99.90;;;;;;5029775;28;20060;-72
2023/11/26 11:22:48;;;;;;;7.30;2.67;;;7.10;99.90;;;;;;5022544;28;20044;-73
2023/11/26 11:25:19;;;;;;;6.80;1.80;;;7.10;99.90;;;;;;4993541;28;20052;-73
2023/11/26 11:27:58;;;;;;;10.20;2.05;;;7.20;99.90;;;;;;5026695;28;20048;-73
2023/11/26 11:30:35;;;;;;;11.88;2.38;;;7.20;99.90;;;;;;5007272;28;20506;-73
2023/11/26 11:33:03;;;;;;;8.75;2.08;;;7.20;99.90;;;;;;5024916;28;20044;-72
2023/11/26 11:35:37;;;;;;;11.10;2.72;;;7.20;99.90;;;;;;5012079;28;20049;-72
2023/11/26 11:38:07;;;;;;;5.53;1.80;;;7.30;99.90;;;;;;5026317;28;20401;-72
2023/11/26 11:41:01;;;;;;;10.60;3.55;;;7.30;99.90;;;;;;5013077;28;20049;-72
2023/11/26 11:43:30;;;;;;;5.65;1.50;;;7.30;99.90;;;;;;5026790;28;20053;-72
2023/11/26 11:45:56;;;;;;;6.13;1.08;;;7.30;99.90;;;;;;5022286;28;20091;-72
2023/11/26 11:48:40;;;;;;;6.88;1.15;;;7.40;99.90;;;;;;5014023;28;20355;-74
2023/11/26 11:51:31;;;;;;;5.40;1.05;;;7.50;99.90;;;;;;5001748;28;20053;-71
2023/11/26 11:54:37;;;;;;;9.13;2.40;;;8.00;99.90;;;;;;5002935;28;20082;-73
2023/11/26 11:57:03;;;;;;;6.20;1.15;;;7.60;99.90;;;;;;4954565;28;20107;-73
2023/11/26 11:59:30;;;;;;;11.50;1.92;;;7.60;99.90;;;;;;5028869;28;20124;-73
2023/11/26 12:02:03;;;;;;;5.25;1.05;;;7.60;99.90;;;;;;5024644;28;20090;-72
2023/11/26 12:04:48;;;;;;;10.52;1.35;;;8.30;99.90;;;;;;5022406;28;20034;-73
2023/11/26 12:07:19;;;;;;;5.88;1.38;;;7.60;99.90;;;;;;5025160;28;20036;-72
2023/11/26 12:09:45;;;;;;;7.18;1.45;;;7.60;99.90;;;;;;5022931;28;20042;-72
2023/11/26 12:12:20;;;;;;;11.25;1.52;;;7.60;99.90;;;;;;5027225;28;20033;-72
2023/11/26 12:14:46;;;;;;;4.35;1.25;;;8.10;99.90;;;;;;5005329;28;20038;-72
2023/11/26 12:17:12;;;;;;;9.27;2.53;;;7.60;99.90;;;;;;5022721;28;20037;-73
2023/11/26 12:19:42;;;;;;;6.65;1.27;;;7.60;99.90;;;;;;5008306;28;20034;-73
2023/11/26 12:22:08;;;;;;;9.07;1.77;;;7.60;99.90;;;;;;4996339;28;20176;-72
2023/11/26 12:24:36;;;;;;;8.20;1.02;;;7.60;99.90;;;;;;5022899;28;20664;-71
2023/11/26 12:27:06;;;;;;;6.97;1.35;;;7.60;99.90;;;;;;5012144;28;20450;-71
2023/11/26 12:29:33;;;;;;;4.95;1.33;;;7.60;99.90;;;;;;5024700;28;20041;-69
2023/11/26 12:32:07;;;;;;;7.22;1.10;;;7.60;99.90;;;;;;5012431;28;20494;-71
2023/11/26 12:34:38;;;;;;;5.15;1.13;;;7.60;99.90;;;;;;5013490;28;20490;-72
2023/11/26 12:37:06;;;;;;;8.30;1.38;;;7.60;99.90;;;;;;4992366;28;20041;-72
2023/11/26 12:39:34;;;;;;;8.27;0.98;;;7.10;99.90;;;;;;5017335;28;20042;-72
2023/11/26 12:42:00;;;;;;;9.30;1.40;;;7.60;99.90;;;;;;4998853;28;20421;-72
2023/11/26 12:44:25;;;;;;;9.02;1.50;;;7.60;99.90;;;;;;5012258;28;20035;-72
2023/11/26 12:47:03;;;;;;;6.60;1.30;;;7.60;99.90;;;;;;5019680;28;20463;-72
2023/11/26 12:49:28;;;;;;;7.30;1.77;;;7.60;99.90;;;;;;5023577;28;20513;-72
2023/11/26 12:51:54;;;;;;;7.95;1.40;;;7.60;99.90;;;;;;5025420;28;20045;-72
2023/11/26 12:54:23;;;;;;;5.35;1.27;;;8.00;99.90;;;;;;5015975;28;20053;-71
2023/11/26 12:56:51;;;;;;;10.45;1.42;;;7.60;99.90;;;;;;5026423;28;20034;-71